createdAt,value
2022-10-18T00:02:06.867Z,3.97
2022-10-18T00:07:08.295Z,4.85
2022-10-18T00:12:09.856Z,5.05
2022-10-18T00:17:11.336Z,5.32
2022-10-18T00:22:12.733Z,4.80
2022-10-18T00:27:14.130Z,5.47
2022-10-18T00:32:15.536Z,4.93
2022-10-18T00:37:17.180Z,5.53
2022-10-18T00:42:19.492Z,5.32
2022-10-18T00:47:20.989Z,5.18
2022-10-18T00:52:25.647Z,5.88
2022-10-18T00:57:27.160Z,5.97
2022-10-18T01:02:28.943Z,5.80
2022-10-18T01:07:30.728Z,6.03
2022-10-18T01:12:47.454Z,5.60
2022-10-18T01:18:07.583Z,5.72
2022-10-18T01:28:36.512Z,6.45
2022-10-18T01:33:41.266Z,6.97
2022-10-18T01:38:43.600Z,7.53
2022-10-18T01:43:47.900Z,7.47
2022-10-18T01:48:49.851Z,7.88
2022-10-18T01:53:51.231Z,7.63
2022-10-18T01:58:55.894Z,7.15
2022-10-18T02:04:01.867Z,7.80
2022-10-18T02:09:20.220Z,7.38
2022-10-18T02:14:23.758Z,7.35
2022-10-18T02:19:28.078Z,7.03
2022-10-18T02:24:35.572Z,7.20
2022-10-18T02:29:37.427Z,6.95
2022-10-18T02:34:41.383Z,7.63
2022-10-18T02:39:45.865Z,7.32
2022-10-18T02:44:47.286Z,7.15
2022-10-18T02:49:48.687Z,7.53
2022-10-18T02:54:50.083Z,6.60
2022-10-18T02:59:51.454Z,6.60
2022-10-18T03:04:53.034Z,7.22
2022-10-18T03:09:54.425Z,6.80
2022-10-18T03:14:55.855Z,6.55
2022-10-18T03:19:57.332Z,6.50
2022-10-18T03:24:58.713Z,6.22
2022-10-18T03:30:00.993Z,6.65
2022-10-18T03:35:02.427Z,6.30
2022-10-18T03:40:04.310Z,6.45
2022-10-18T03:45:06.049Z,6.18
2022-10-18T03:50:07.609Z,6.10
2022-10-18T03:55:09.146Z,6.03
2022-10-18T04:00:10.943Z,6.10
2022-10-18T04:05:12.972Z,5.85
2022-10-18T04:10:14.376Z,4.78
2022-10-18T04:15:15.817Z,4.38
2022-10-18T04:20:17.426Z,4.90
2022-10-18T04:25:18.757Z,4.35
2022-10-18T04:30:20.286Z,4.10
2022-10-18T04:35:24.583Z,3.90
2022-10-18T04:40:26.056Z,3.33
2022-10-18T04:45:27.455Z,3.25
2022-10-18T04:50:28.931Z,3.67
2022-10-18T04:55:30.337Z,3.60
2022-10-18T05:00:34.354Z,3.03
2022-10-18T05:05:57.153Z,3.03
2022-10-18T05:10:59.426Z,2.85
2022-10-18T05:16:01.011Z,3.33
2022-10-18T05:21:02.427Z,3.22
2022-10-18T05:26:04.819Z,3.10
2022-10-18T05:31:07.010Z,3.25
2022-10-18T05:36:08.835Z,3.20
2022-10-18T05:41:10.419Z,2.83
2022-10-18T05:46:15.560Z,3.10
2022-10-18T05:51:17.993Z,3.08
2022-10-18T05:56:19.401Z,2.80
2022-10-18T06:01:21.166Z,2.88
2022-10-18T06:06:22.917Z,2.80
2022-10-18T06:11:24.713Z,2.97
2022-10-18T06:16:32.019Z,3.15
2022-10-18T06:21:33.807Z,3.85
2022-10-18T06:26:35.242Z,2.80
2022-10-18T06:31:36.660Z,3.42
2022-10-18T06:36:38.008Z,3.28
2022-10-18T06:41:39.443Z,3.13
2022-10-18T06:46:41.270Z,3.85
2022-10-18T06:51:43.497Z,3.30
2022-10-18T06:56:44.930Z,3.33
2022-10-18T07:01:46.443Z,3.25
2022-10-18T07:06:47.918Z,2.75
2022-10-18T07:11:49.326Z,3.05
2022-10-18T07:16:50.722Z,2.90
2022-10-18T07:21:52.156Z,3.20
2022-10-18T07:26:53.580Z,2.90
2022-10-18T07:31:55.031Z,2.92
2022-10-18T07:36:56.477Z,2.90
2022-10-18T07:41:57.874Z,3.08
2022-10-18T07:46:59.310Z,3.45
2022-10-18T07:52:00.690Z,3.72
2022-10-18T07:57:03.780Z,3.60
2022-10-18T08:02:05.263Z,3.45
2022-10-18T08:07:06.786Z,3.40
2022-10-18T08:12:08.211Z,3.88
2022-10-18T08:17:09.791Z,3.22
2022-10-18T08:22:11.313Z,3.50
2022-10-18T08:27:12.825Z,3.20
2022-10-18T08:32:14.220Z,3.13
2022-10-18T08:37:15.789Z,3.78
2022-10-18T08:42:40.423Z,3.13
2022-10-18T08:47:43.452Z,3.20
2022-10-18T08:52:53.820Z,2.03
2022-10-18T08:57:57.521Z,2.00
2022-10-18T09:03:17.785Z,2.38
2022-10-18T09:08:38.105Z,2.58
2022-10-18T09:13:58.377Z,2.50
2022-10-18T09:19:06.503Z,2.28
2022-10-18T09:24:15.080Z,2.13
2022-10-18T09:29:39.362Z,2.05
2022-10-18T09:35:19.368Z,2.45
2022-10-18T09:40:25.416Z,2.03
2022-10-18T09:45:35.525Z,2.15
2022-10-18T09:50:40.020Z,2.42
2022-10-18T09:55:53.989Z,2.28
2022-10-18T10:00:55.584Z,2.00
2022-10-18T10:06:15.218Z,2.00
2022-10-18T10:11:35.260Z,2.10
2022-10-18T10:21:39.756Z,2.00
2022-10-18T10:26:41.282Z,2.60
2022-10-18T10:31:42.863Z,1.52
2022-10-18T10:36:48.901Z,2.08
2022-10-18T10:41:52.369Z,1.60
2022-10-18T10:46:54.989Z,2.45
2022-10-18T10:52:08.526Z,1.83
2022-10-18T10:57:12.381Z,1.75
2022-10-18T11:02:13.965Z,1.95
2022-10-18T11:07:22.743Z,1.73
2022-10-18T11:12:35.707Z,1.70
2022-10-18T11:17:55.990Z,1.40
2022-10-18T11:23:07.093Z,2.22
2022-10-18T11:28:27.342Z,1.92
2022-10-18T11:34:07.127Z,1.80
2022-10-18T11:39:11.132Z,2.13
2022-10-18T11:44:15.609Z,1.90
2022-10-18T11:49:26.185Z,1.30
2022-10-18T11:54:27.596Z,1.80
2022-10-18T11:59:42.553Z,1.77
2022-10-18T12:04:58.464Z,1.55
2022-10-18T12:10:10.101Z,1.52
2022-10-18T12:15:18.562Z,1.60
2022-10-18T12:20:41.720Z,1.77
2022-10-18T12:25:45.657Z,1.70
2022-10-18T12:30:56.756Z,1.92
2022-10-18T12:35:58.145Z,1.60
2022-10-18T12:41:00.091Z,1.58
2022-10-18T12:46:02.341Z,1.77
2022-10-18T12:51:13.903Z,1.90
2022-10-18T12:56:27.589Z,1.90
2022-10-18T13:01:48.966Z,1.70
2022-10-18T13:07:05.540Z,2.13
2022-10-18T13:12:09.984Z,2.33
2022-10-18T13:17:11.373Z,1.95
2022-10-18T13:22:31.568Z,1.85
2022-10-18T13:27:54.439Z,2.30
2022-10-18T13:32:57.349Z,1.80
2022-10-18T13:37:59.909Z,1.63
2022-10-18T13:43:21.251Z,2.03
2022-10-18T13:48:45.090Z,2.15
2022-10-18T13:53:52.050Z,2.22
2022-10-18T13:59:14.658Z,1.95
2022-10-18T14:04:19.313Z,2.28
2022-10-18T14:14:56.119Z,1.73
2022-10-18T14:20:00.385Z,2.28
2022-10-18T14:25:01.843Z,1.80
2022-10-18T14:30:10.843Z,1.75
2022-10-18T14:35:38.646Z,1.88
2022-10-18T14:40:40.432Z,1.63
2022-10-18T14:45:42.357Z,1.75
2022-10-18T14:50:46.115Z,2.40
2022-10-18T14:56:00.777Z,1.73
2022-10-18T15:01:02.439Z,1.88
2022-10-18T15:06:05.330Z,1.92
2022-10-18T15:11:10.526Z,1.45
2022-10-18T15:16:16.532Z,1.42
2022-10-18T15:21:22.208Z,1.80
2022-10-18T15:26:23.620Z,1.92
2022-10-18T15:31:26.577Z,1.70
2022-10-18T15:36:29.576Z,2.08
2022-10-18T15:41:42.547Z,1.60
2022-10-18T15:46:44.176Z,1.40
2022-10-18T15:51:49.372Z,2.10
2022-10-18T15:56:50.842Z,1.65
2022-10-18T16:01:52.472Z,1.65
2022-10-18T16:06:55.558Z,1.92
2022-10-18T16:11:58.238Z,1.60
2022-10-18T16:17:00.852Z,1.70
2022-10-18T16:22:06.402Z,2.20
2022-10-18T16:27:09.749Z,1.85
2022-10-18T16:32:11.187Z,2.38
2022-10-18T16:37:12.587Z,1.92
2022-10-18T16:42:14.015Z,2.13
2022-10-18T16:47:15.629Z,2.30
2022-10-18T16:52:17.103Z,2.67
2022-10-18T16:57:18.576Z,2.55
2022-10-18T17:02:19.934Z,2.20
2022-10-18T17:07:23.454Z,2.10
2022-10-18T17:12:25.012Z,2.78
2022-10-18T17:17:26.539Z,3.22
2022-10-18T17:22:27.917Z,3.03
2022-10-18T17:27:29.577Z,2.90
2022-10-18T17:32:31.089Z,4.32
2022-10-18T17:37:32.768Z,4.43
2022-10-18T17:42:34.474Z,3.40
2022-10-18T17:47:36.006Z,3.45
2022-10-18T17:57:43.758Z,2.28
2022-10-18T18:02:46.707Z,2.17
2022-10-18T18:07:48.196Z,2.47
2022-10-18T18:12:49.629Z,3.95
2022-10-18T18:17:58.511Z,3.00
2022-10-18T18:23:00.701Z,2.10
2022-10-18T18:28:05.219Z,2.60
2022-10-18T18:33:08.981Z,2.83
2022-10-18T18:38:10.555Z,1.92
2022-10-18T18:43:23.014Z,2.03
2022-10-18T18:48:25.832Z,2.75
2022-10-18T18:53:29.480Z,2.35
2022-10-18T18:58:31.328Z,2.17
2022-10-18T19:03:32.862Z,2.35
2022-10-18T19:08:35.288Z,2.97
2022-10-18T19:13:36.838Z,2.53
2022-10-18T19:18:38.330Z,2.58
2022-10-18T19:23:39.739Z,3.15
2022-10-18T19:28:41.350Z,3.58
2022-10-18T19:33:48.811Z,4.20
2022-10-18T19:39:00.584Z,3.95
2022-10-18T19:44:02.170Z,2.88
2022-10-18T19:49:03.657Z,2.95
2022-10-18T19:54:05.350Z,3.03
2022-10-18T19:59:06.812Z,2.40
2022-10-18T20:04:08.693Z,2.00
2022-10-18T20:09:13.386Z,2.00
2022-10-18T20:14:17.981Z,2.10
2022-10-18T20:19:19.469Z,2.30
2022-10-18T20:24:21.086Z,2.58
2022-10-18T20:29:25.297Z,2.22
2022-10-18T20:34:28.513Z,2.42
2022-10-18T20:39:30.040Z,2.30
2022-10-18T20:44:34.095Z,2.92
2022-10-18T20:49:35.660Z,2.30
2022-10-18T20:54:37.072Z,2.45
2022-10-18T20:59:38.496Z,2.35
2022-10-18T21:04:42.206Z,2.47
2022-10-18T21:09:43.953Z,3.25
2022-10-18T21:14:45.363Z,3.80
2022-10-18T21:19:46.763Z,2.88
2022-10-18T21:24:49.810Z,2.63
2022-10-18T21:29:51.329Z,2.50
2022-10-18T21:34:52.726Z,3.08
2022-10-18T21:39:54.133Z,3.20
2022-10-18T21:44:55.565Z,3.40
2022-10-18T21:49:56.954Z,2.50
2022-10-18T21:54:58.372Z,2.80
2022-10-18T21:59:59.781Z,2.25
2022-10-18T22:05:01.237Z,2.20
2022-10-18T22:10:02.736Z,1.83
2022-10-18T22:15:04.285Z,1.75
2022-10-18T22:20:06.070Z,1.50
2022-10-18T22:25:07.642Z,1.10
2022-10-18T22:30:09.360Z,1.40
2022-10-18T22:35:10.826Z,1.30
2022-10-18T22:40:12.228Z,1.23
2022-10-18T22:45:13.676Z,1.23
2022-10-18T22:50:15.305Z,1.30
2022-10-18T22:55:16.878Z,1.40
2022-10-18T23:00:18.320Z,1.33
2022-10-18T23:05:19.770Z,1.33
2022-10-18T23:10:21.209Z,1.33
2022-10-18T23:15:22.627Z,1.40
2022-10-18T23:20:24.252Z,1.20
2022-10-18T23:25:27.110Z,1.50
2022-10-18T23:30:28.563Z,1.23
2022-10-18T23:35:29.965Z,1.40
2022-10-18T23:40:31.402Z,1.60
2022-10-18T23:45:32.795Z,1.50
2022-10-18T23:50:34.294Z,1.10
2022-10-18T23:55:35.819Z,1.30
